Time;durP1;ratioP1;P1;durP2;ratioP2;P2;SDS_P1;SDS_P2;PMS_P1;PMS_P2;Temp;Humidity;BMP_temperature;BMP_pressure;BME280_temperature;BME280_humidity;BME280_pressure;Samples;Min_cycle;Max_cycle;Signal;HPM_P1;HPM_P2
2021/11/23 00:01:15;;;;;;;;;;;;;;;;;;5061063;28;20003;-51
2021/11/23 00:03:41;;;;;;;;;;;;;;;;;;5056991;28;20506;-50
2021/11/23 00:06:07;;;;;;;;;;;;;;;;;;5059189;28;19924;-49
2021/11/23 00:08:33;;;;;;;;;;;;;;;;;;5054715;28;19922;-50
2021/11/23 00:10:59;;;;;;;;;;;;;;;;;;5060889;28;19943;-51
2021/11/23 00:13:25;;;;;;;;;;;;;;;;;;5064384;28;19955;-51
2021/11/23 00:15:51;;;;;;;;;;;;;;;;;;5064704;28;19908;-52
2021/11/23 00:18:17;;;;;;;;;;;;;;;;;;5062579;28;19913;-50
2021/11/23 00:20:44;;;;;;;;;;;;;;;;;;5064852;28;19912;-52
2021/11/23 00:23:10;;;;;;;;;;;;;;;;;;5066961;28;20337;-50
2021/11/23 00:25:36;;;;;;;;;;;;;;;;;;5068527;28;19921;-52
2021/11/23 00:28:01;;;;;;;;;;;;;;;;;;5064967;28;19920;-49
2021/11/23 00:30:29;;;;;;;;;;;;;;;;;;5067501;28;19912;-51
2021/11/23 00:32:55;;;;;;;;;;;;;;;;;;5068055;28;19909;-49
2021/11/23 00:35:21;;;;;;;;;;;;;;;;;;5067850;28;20315;-53
2021/11/23 00:37:48;;;;;;;;;;;;;;;;;;5051319;28;20584;-47
2021/11/23 00:40:14;;;;;;;;;;;;;;;;;;5067535;28;20011;-49
2021/11/23 00:42:40;;;;;;;;;;;;;;;;;;5067328;28;19991;-51
2021/11/23 00:45:06;;;;;;;;;;;;;;;;;;5066691;28;20346;-49
2021/11/23 00:47:31;;;;;;;;;;;;;;;;;;5064649;28;19908;-51
2021/11/23 00:49:58;;;;;;;;;;;;;;;;;;5066808;28;19920;-49
2021/11/23 00:52:24;;;;;;;;;;;;;;;;;;5066350;28;19909;-51
2021/11/23 00:54:50;;;;;;;;;;;;;;;;;;5067012;28;19920;-48
2021/11/23 00:57:17;;;;;;;;;;;;;;;;;;5067489;28;19909;-51
2021/11/23 00:59:44;;;;;;;;;;;;;;;;;;5061589;28;19917;-50
2021/11/23 01:02:11;;;;;;;;;;;;;;;;;;5066547;28;19912;-50
2021/11/23 01:04:38;;;;;;;;;;;;;;;;;;5066949;28;20009;-49
2021/11/23 01:07:04;;;;;;;;;;;;;;;;;;5066778;28;19999;-48
2021/11/23 01:09:30;;;;;;;;;;;;;;;;;;5048176;28;20331;-49
2021/11/23 01:11:56;;;;;;;;;;;;;;;;;;5046264;28;19917;-51
2021/11/23 01:14:23;;;;;;;;;;;;;;;;;;5046235;28;19916;-50
2021/11/23 01:16:49;;;;;;;;;;;;;;;;;;5046219;28;20124;-51
2021/11/23 01:19:16;;;;;;;;;;;;;;;;;;5060383;28;19916;-52
2021/11/23 01:21:42;;;;;;;;;;;;;;;;;;5066751;28;19935;-53
2021/11/23 01:24:09;;;;;;;;;;;;;;;;;;5066774;28;19913;-49
2021/11/23 01:26:35;;;;;;;;;;;;;;;;;;5064479;28;19943;-52
2021/11/23 01:29:01;;;;;;;;;;;;;;;;;;5060234;28;19913;-49
2021/11/23 01:31:27;;;;;;;;;;;;;;;;;;5045434;28;19959;-50
2021/11/23 01:33:53;;;;;;;;;;;;;;;;;;5044707;28;19955;-49
2021/11/23 01:36:19;;;;;;;;;;;;;;;;;;5051860;28;19912;-52
2021/11/23 01:38:46;;;;;;;;;;;;;;;;;;5060000;28;19916;-53
2021/11/23 01:41:12;;;;;;;;;;;;;;;;;;5046251;28;19915;-49
2021/11/23 01:43:38;;;;;;;;;;;;;;;;;;5045965;28;19909;-49
2021/11/23 01:46:05;;;;;;;;;;;;;;;;;;5061914;28;19954;-48
2021/11/23 01:48:31;;;;;;;;;;;;;;;;;;5062996;28;19917;-51
2021/11/23 01:50:57;;;;;;;;;;;;;;;;;;5065782;28;19908;-50
2021/11/23 01:53:22;;;;;;;;;;;;;;;;;;5065388;28;19908;-52
2021/11/23 01:55:48;;;;;;;;;;;;;;;;;;5065850;28;19912;-52
2021/11/23 01:58:16;;;;;;;;;;;;;;;;;;5063002;28;20348;-51
2021/11/23 02:00:43;;;;;;;;;;;;;;;;;;5046376;28;19909;-50
2021/11/23 02:03:10;;;;;;;;;;;;;;;;;;5045152;28;20408;-51
2021/11/23 02:05:35;;;;;;;;;;;;;;;;;;5055458;28;19921;-52
2021/11/23 02:08:02;;;;;;;;;;;;;;;;;;5065717;28;19954;-50
2021/11/23 02:10:27;;;;;;;;;;;;;;;;;;5048581;28;19916;-48
2021/11/23 02:12:54;;;;;;;;;;;;;;;;;;5045275;28;20398;-48
2021/11/23 02:15:20;;;;;;;;;;;;;;;;;;5045031;28;20384;-49
2021/11/23 02:17:47;;;;;;;;;;;;;;;;;;5045518;28;19916;-50
2021/11/23 02:20:13;;;;;;;;;;;;;;;;;;5058758;28;19912;-51
2021/11/23 02:22:39;;;;;;;;;;;;;;;;;;5046664;28;20510;-49
2021/11/23 02:25:05;;;;;;;;;;;;;;;;;;5045260;28;19960;-53
2021/11/23 02:27:31;;;;;;;;;;;;;;;;;;5061063;28;20276;-52
2021/11/23 02:29:56;;;;;;;;;;;;;;;;;;5063824;28;19912;-49
2021/11/23 02:32:22;;;;;;;;;;;;;;;;;;5064164;28;19932;-50
2021/11/23 02:34:49;;;;;;;;;;;;;;;;;;5065426;28;19948;-52
2021/11/23 02:37:16;;;;;;;;;;;;;;;;;;5058120;28;20474;-49
2021/11/23 02:39:43;;;;;;;;;;;;;;;;;;5063651;28;19916;-53
2021/11/23 02:42:09;;;;;;;;;;;;;;;;;;5064252;28;20379;-53
2021/11/23 02:44:36;;;;;;;;;;;;;;;;;;5065330;28;19920;-50
2021/11/23 02:47:02;;;;;;;;;;;;;;;;;;5065035;28;19939;-48
2021/11/23 02:49:28;;;;;;;;;;;;;;;;;;5063534;28;19978;-51
2021/11/23 02:51:55;;;;;;;;;;;;;;;;;;5064863;28;20269;-48
2021/11/23 02:54:21;;;;;;;;;;;;;;;;;;5065286;28;19908;-53
2021/11/23 02:56:47;;;;;;;;;;;;;;;;;;5065476;28;20361;-49
2021/11/23 02:59:14;;;;;;;;;;;;;;;;;;5063392;28;20303;-50
2021/11/23 03:01:40;;;;;;;;;;;;;;;;;;5064538;28;19912;-50
2021/11/23 03:04:06;;;;;;;;;;;;;;;;;;5064825;28;19912;-49
2021/11/23 03:06:32;;;;;;;;;;;;;;;;;;5064217;28;19958;-48
2021/11/23 03:08:58;;;;;;;;;;;;;;;;;;5065212;28;20430;-48
2021/11/23 03:11:24;;;;;;;;;;;;;;;;;;5043929;28;19931;-49
2021/11/23 03:13:50;;;;;;;;;;;;;;;;;;5044735;28;19931;-50
2021/11/23 03:16:16;;;;;;;;;;;;;;;;;;5045932;28;20385;-51
2021/11/23 03:18:42;;;;;;;;;;;;;;;;;;5045557;28;20015;-51
2021/11/23 03:21:08;;;;;;;;;;;;;;;;;;5057221;28;19921;-48
2021/11/23 03:23:34;;;;;;;;;;;;;;;;;;5064557;28;19916;-48
2021/11/23 03:26:00;;;;;;;;;;;;;;;;;;5065122;28;19970;-51
2021/11/23 03:28:26;;;;;;;;;;;;;;;;;;5062994;28;20391;-52
2021/11/23 03:30:53;;;;;;;;;;;;;;;;;;5063365;28;20213;-49
2021/11/23 03:33:20;;;;;;;;;;;;;;;;;;5064274;28;20434;-49
2021/11/23 03:35:46;;;;;;;;;;;;;;;;;;5065177;28;19913;-50
2021/11/23 03:38:13;;;;;;;;;;;;;;;;;;5064077;28;20291;-51
2021/11/23 03:40:38;;;;;;;;;;;;;;;;;;5047682;28;20309;-52
2021/11/23 03:43:04;;;;;;;;;;;;;;;;;;5063305;28;19913;-52
2021/11/23 03:45:30;;;;;;;;;;;;;;;;;;5064587;28;19916;-48
2021/11/23 03:47:56;;;;;;;;;;;;;;;;;;5063786;28;19912;-48
2021/11/23 03:50:23;;;;;;;;;;;;;;;;;;5064510;28;20295;-48
2021/11/23 03:52:49;;;;;;;;;;;;;;;;;;5060787;28;19913;-50
2021/11/23 03:55:16;;;;;;;;;;;;;;;;;;5065230;28;19935;-51
2021/11/23 03:57:42;;;;;;;;;;;;;;;;;;5047852;28;20393;-49
2021/11/23 04:00:08;;;;;;;;;;;;;;;;;;5048235;28;19996;-48
2021/11/23 04:02:34;;;;;;;;;;;;;;;;;;5047377;28;19916;-51
2021/11/23 04:05:00;;;;;;;;;;;;;;;;;;5048248;28;19913;-48
2021/11/23 04:07:26;;;;;;;;;;;;;;;;;;5062910;28;19946;-51
2021/11/23 04:09:52;;;;;;;;;;;;;;;;;;5068013;28;20348;-53
2021/11/23 04:12:18;;;;;;;;;;;;;;;;;;5066742;28;19917;-48
2021/11/23 04:14:44;;;;;;;;;;;;;;;;;;5069183;28;19940;-49
2021/11/23 04:17:10;;;;;;;;;;;;;;;;;;5065746;28;19916;-47
2021/11/23 04:19:36;;;;;;;;;;;;;;;;;;5068588;28;20003;-48
2021/11/23 04:22:03;;;;;;;;;;;;;;;;;;5066599;28;20031;-48
2021/11/23 04:24:29;;;;;;;;;;;;;;;;;;5058688;28;19921;-49
2021/11/23 04:26:56;;;;;;;;;;;;;;;;;;5058741;28;20320;-49
2021/11/23 04:29:23;;;;;;;;;;;;;;;;;;5068378;28;19909;-49
2021/11/23 04:31:49;;;;;;;;;;;;;;;;;;5067809;28;19909;-49
2021/11/23 04:34:15;;;;;;;;;;;;;;;;;;5068355;28;20410;-48
2021/11/23 04:36:41;;;;;;;;;;;;;;;;;;5061067;28;19917;-49
2021/11/23 04:39:07;;;;;;;;;;;;;;;;;;5047838;28;19920;-50
2021/11/23 04:41:33;;;;;;;;;;;;;;;;;;5046583;28;19905;-48
2021/11/23 04:43:59;;;;;;;;;;;;;;;;;;5047407;28;19961;-48
2021/11/23 04:46:25;;;;;;;;;;;;;;;;;;5049508;28;19924;-48
2021/11/23 04:48:52;;;;;;;;;;;;;;;;;;5067558;28;20257;-51
2021/11/23 04:51:18;;;;;;;;;;;;;;;;;;5067637;28;19961;-48
2021/11/23 04:53:44;;;;;;;;;;;;;;;;;;5068203;28;19909;-49
2021/11/23 04:56:10;;;;;;;;;;;;;;;;;;5066215;28;20340;-52
2021/11/23 04:58:37;;;;;;;;;;;;;;;;;;5050329;28;19917;-49
2021/11/23 05:01:03;;;;;;;;;;;;;;;;;;5046957;28;19955;-51
2021/11/23 05:03:29;;;;;;;;;;;;;;;;;;5046346;28;19917;-50
2021/11/23 05:05:55;;;;;;;;;;;;;;;;;;5047219;28;20014;-51
2021/11/23 05:08:21;;;;;;;;;;;;;;;;;;5058762;28;19917;-49
2021/11/23 05:10:47;;;;;;;;;;;;;;;;;;5060594;28;20380;-49
2021/11/23 05:13:12;;;;;;;;;;;;;;;;;;5066614;28;19909;-50
2021/11/23 05:15:38;;;;;;;;;;;;;;;;;;5065106;28;20347;-52
2021/11/23 05:18:06;;;;;;;;;;;;;;;;;;5064877;28;21331;-49
2021/11/23 05:20:32;;;;;;;;;;;;;;;;;;5066720;28;19912;-48
2021/11/23 05:22:59;;;;;;;;;;;;;;;;;;5067298;28;19920;-49
2021/11/23 05:25:25;;;;;;;;;;;;;;;;;;5067034;28;19912;-50
2021/11/23 05:27:51;;;;;;;;;;;;;;;;;;5063669;28;20266;-50
2021/11/23 05:30:16;;;;;;;;;;;;;;;;;;5065665;28;19927;-51
2021/11/23 05:32:42;;;;;;;;;;;;;;;;;;5067433;28;19909;-50
2021/11/23 05:35:08;;;;;;;;;;;;;;;;;;5067135;28;19915;-50
2021/11/23 05:37:35;;;;;;;;;;;;;;;;;;5059572;28;19944;-48
2021/11/23 05:40:02;;;;;;;;;;;;;;;;;;5047220;28;20020;-51
2021/11/23 05:42:28;;;;;;;;;;;;;;;;;;5046246;28;20243;-49
2021/11/23 05:44:54;;;;;;;;;;;;;;;;;;5045668;28;20372;-48
2021/11/23 05:47:20;;;;;;;;;;;;;;;;;;5046136;28;20011;-53
2021/11/23 05:49:46;;;;;;;;;;;;;;;;;;5047290;28;19996;-51
2021/11/23 05:52:13;;;;;;;;;;;;;;;;;;5045560;28;19912;-49
2021/11/23 05:54:39;;;;;;;;;;;;;;;;;;5046916;28;19966;-48
2021/11/23 05:57:05;;;;;;;;;;;;;;;;;;5058548;28;20338;-48
2021/11/23 05:59:31;;;;;;;;;;;;;;;;;;5064131;28;19946;-48
2021/11/23 06:01:58;;;;;;;;;;;;;;;;;;5065656;28;19912;-50
2021/11/23 06:04:24;;;;;;;;;;;;;;;;;;5065299;28;19916;-51
2021/11/23 06:06:50;;;;;;;;;;;;;;;;;;5065764;28;19931;-49
2021/11/23 06:09:16;;;;;;;;;;;;;;;;;;5064101;28;20018;-50
2021/11/23 06:11:42;;;;;;;;;;;;;;;;;;5066112;28;19927;-52
2021/11/23 06:14:08;;;;;;;;;;;;;;;;;;5064052;28;19916;-49
2021/11/23 06:16:36;;;;;;;;;;;;;;;;;;5065502;28;20395;-50
2021/11/23 06:19:02;;;;;;;;;;;;;;;;;;5050140;28;20431;-52
2021/11/23 06:21:28;;;;;;;;;;;;;;;;;;5045985;28;19999;-51
2021/11/23 06:23:54;;;;;;;;;;;;;;;;;;5045998;28;19909;-50
2021/11/23 06:26:21;;;;;;;;;;;;;;;;;;5045922;28;19912;-50
2021/11/23 06:28:48;;;;;;;;;;;;;;;;;;5056742;28;20018;-50
2021/11/23 06:31:14;;;;;;;;;;;;;;;;;;5048640;28;19921;-50
2021/11/23 06:33:40;;;;;;;;;;;;;;;;;;5051969;28;19943;-51
2021/11/23 06:36:07;;;;;;;;;;;;;;;;;;5067563;28;20883;-53
2021/11/23 06:38:33;;;;;;;;;;;;;;;;;;5066919;28;19966;-51
2021/11/23 06:40:59;;;;;;;;;;;;;;;;;;5067065;28;19912;-50
2021/11/23 06:43:25;;;;;;;;;;;;;;;;;;5056421;28;20277;-50
2021/11/23 06:45:51;;;;;;;;;;;;;;;;;;5058536;28;19958;-51
2021/11/23 06:48:17;;;;;;;;;;;;;;;;;;5046304;28;19912;-53
2021/11/23 06:50:44;;;;;;;;;;;;;;;;;;5047757;28;19924;-52
2021/11/23 06:53:10;;;;;;;;;;;;;;;;;;5045526;28;19909;-49
2021/11/23 06:55:37;;;;;;;;;;;;;;;;;;5065418;28;19961;-51
2021/11/23 06:58:02;;;;;;;;;;;;;;;;;;5066440;28;19924;-52
2021/11/23 07:00:29;;;;;;;;;;;;;;;;;;5050417;28;19920;-48
2021/11/23 07:02:55;;;;;;;;;;;;;;;;;;5046266;28;19913;-51
2021/11/23 07:05:21;;;;;;;;;;;;;;;;;;5046141;28;19919;-52
2021/11/23 07:07:47;;;;;;;;;;;;;;;;;;5046732;28;19917;-51
2021/11/23 07:10:14;;;;;;;;;;;;;;;;;;5070521;28;19969;-52
2021/11/23 07:12:40;;;;;;;;;;;;;;;;;;5068489;28;19951;-51
2021/11/23 07:15:06;;;;;;;;;;;;;;;;;;5065593;28;19964;-52
2021/11/23 07:17:32;;;;;;;;;;;;;;;;;;5066409;28;19970;-52
2021/11/23 07:19:58;;;;;;;;;;;;;;;;;;5066551;28;19991;-50
2021/11/23 07:22:24;;;;;;;;;;;;;;;;;;5049801;28;19919;-50
2021/11/23 07:24:50;;;;;;;;;;;;;;;;;;5044961;28;19958;-52
2021/11/23 07:27:16;;;;;;;;;;;;;;;;;;5044641;28;19920;-52
2021/11/23 07:29:41;;;;;;;;;;;;;;;;;;5045933;28;20350;-48
2021/11/23 07:32:07;;;;;;;;;;;;;;;;;;5044473;28;19921;-48
2021/11/23 07:34:33;;;;;;;;;;;;;;;;;;5045704;28;20004;-50
2021/11/23 07:36:59;;;;;;;;;;;;;;;;;;5044556;28;20007;-53
2021/11/23 07:39:27;;;;;;;;;;;;;;;;;;5058739;28;19977;-49
2021/11/23 07:41:53;;;;;;;;;;;;;;;;;;5059161;28;19988;-50
2021/11/23 07:44:19;;;;;;;;;;;;;;;;;;5061977;28;19908;-48
2021/11/23 07:46:45;;;;;;;;;;;;;;;;;;5060043;28;19923;-49
2021/11/23 07:49:11;;;;;;;;;;;;;;;;;;5051445;28;19917;-51
2021/11/23 07:51:36;;;;;;;;;;;;;;;;;;5058677;28;19919;-50
2021/11/23 07:54:02;;;;;;;;;;;;;;;;;;5058979;28;20004;-51
2021/11/23 07:56:28;;;;;;;;;;;;;;;;;;5053613;28;20296;-51
2021/11/23 07:58:54;;;;;;;;;;;;;;;;;;5053162;28;19912;-52
2021/11/23 08:01:20;;;;;;;;;;;;;;;;;;5060703;28;20295;-50
2021/11/23 08:03:46;;;;;;;;;;;;;;;;;;5061850;28;19913;-49
2021/11/23 08:06:12;;;;;;;;;;;;;;;;;;5064656;28;19912;-51
2021/11/23 08:08:39;;;;;;;;;;;;;;;;;;5063209;28;19995;-53
2021/11/23 08:11:05;;;;;;;;;;;;;;;;;;5062512;28;19928;-52
2021/11/23 08:13:31;;;;;;;;;;;;;;;;;;5053325;28;19919;-48
2021/11/23 08:16:02;;;;;;;;;;;;;;;;;;5059704;28;19913;-52
2021/11/23 08:18:28;;;;;;;;;;;;;;;;;;5063280;28;20334;-49
2021/11/23 08:20:55;;;;;;;;;;;;;;;;;;5064116;28;19909;-51
2021/11/23 08:23:21;;;;;;;;;;;;;;;;;;5056329;28;20279;-51
2021/11/23 08:25:47;;;;;;;;;;;;;;;;;;5050049;28;19917;-52
2021/11/23 08:28:13;;;;;;;;;;;;;;;;;;5066239;28;19913;-49
2021/11/23 08:30:39;;;;;;;;;;;;;;;;;;5062692;28;20007;-52
2021/11/23 08:33:06;;;;;;;;;;;;;;;;;;4916658;28;20536;-52
2021/11/23 08:35:32;;;;;;;;;;;;;;;;;;4973204;28;20130;-50
2021/11/23 08:37:57;;;;;;;;;;;;;;;;;;4965114;28;19916;-52
2021/11/23 08:40:23;;;;;;;;;;;;;;;;;;4936728;28;19916;-52
2021/11/23 08:42:51;;;;;;;;;;;;;;;;;;5025104;28;19912;-50
2021/11/23 08:45:17;;;;;;;;;;;;;;;;;;5061027;28;19920;-52
2021/11/23 08:47:43;;;;;;;;;;;;;;;;;;5061701;28;20299;-53
2021/11/23 08:50:09;;;;;;;;;;;;;;;;;;5051232;28;19936;-52
2021/11/23 08:52:35;;;;;;;;;;;;;;;;;;5062201;28;19909;-53
2021/11/23 08:55:01;;;;;;;;;;;;;;;;;;5071096;28;19932;-48
2021/11/23 08:57:27;;;;;;;;;;;;;;;;;;5068817;28;19908;-52
2021/11/23 09:00:07;;;;;;;;;;;;;;;;;;5070480;28;19920;-49
2021/11/23 09:02:33;;;;;;;;;;;;;;;;;;5070387;28;20287;-50
2021/11/23 09:04:59;;;;;;;;;;;;;;;;;;5070113;28;19924;-48
2021/11/23 09:07:26;;;;;;;;;;;;;;;;;;5069707;28;19916;-52
2021/11/23 09:09:52;;;;;;;;;;;;;;;;;;5070423;28;20296;-48
2021/11/23 09:12:18;;;;;;;;;;;;;;;;;;5070417;28;19920;-48
2021/11/23 09:14:44;;;;;;;;;;;;;;;;;;5070445;28;19913;-48
2021/11/23 09:17:10;;;;;;;;;;;;;;;;;;5069870;28;20367;-52
2021/11/23 09:19:36;;;;;;;;;;;;;;;;;;5069985;28;19916;-52
2021/11/23 09:22:01;;;;;;;;;;;;;;;;;;5069843;28;20443;-53
2021/11/23 09:24:27;;;;;;;;;;;;;;;;;;5069812;28;20291;-52
2021/11/23 09:26:53;;;;;;;;;;;;;;;;;;5069767;28;19935;-53
2021/11/23 09:29:19;;;;;;;;;;;;;;;;;;5070309;28;19954;-53
2021/11/23 09:31:45;;;;;;;;;;;;;;;;;;5070480;28;19908;-50
2021/11/23 09:34:11;;;;;;;;;;;;;;;;;;5069828;28;20431;-51
2021/11/23 09:36:37;;;;;;;;;;;;;;;;;;5070251;28;20351;-52
2021/11/23 09:39:03;;;;;;;;;;;;;;;;;;5069661;28;19908;-51
2021/11/23 09:41:31;;;;;;;;;;;;;;;;;;5069518;28;19914;-52
2021/11/23 09:43:57;;;;;;;;;;;;;;;;;;5069133;28;19909;-52
2021/11/23 09:46:22;;;;;;;;;;;;;;;;;;5069157;28;20011;-52
2021/11/23 09:48:48;;;;;;;;;;;;;;;;;;5070025;28;20295;-51
2021/11/23 09:51:14;;;;;;;;;;;;;;;;;;5069257;28;20332;-52
2021/11/23 09:53:40;;;;;;;;;;;;;;;;;;5069082;28;20525;-52
2021/11/23 09:56:06;;;;;;;;;;;;;;;;;;5068849;28;20000;-50
2021/11/23 09:58:32;;;;;;;;;;;;;;;;;;5069105;28;19999;-50
2021/11/23 10:00:58;;;;;;;;;;;;;;;;;;5069309;28;19954;-52
2021/11/23 10:03:24;;;;;;;;;;;;;;;;;;5069009;28;19909;-51
2021/11/23 10:05:51;;;;;;;;;;;;;;;;;;5070062;28;20016;-51
2021/11/23 10:08:17;;;;;;;;;;;;;;;;;;5068213;28;19917;-51
2021/11/23 10:10:43;;;;;;;;;;;;;;;;;;5069052;28;20330;-52
2021/11/23 10:13:09;;;;;;;;;;;;;;;;;;5068936;28;20003;-50
2021/11/23 10:15:35;;;;;;;;;;;;;;;;;;5068882;28;19905;-52
2021/11/23 10:18:01;;;;;;;;;;;;;;;;;;5069305;28;20220;-48
2021/11/23 10:20:27;;;;;;;;;;;;;;;;;;5068713;28;20200;-52
2021/11/23 10:22:53;;;;;;;;;;;;;;;;;;5068797;28;19905;-51
2021/11/23 10:25:19;;;;;;;;;;;;;;;;;;5069011;28;20015;-50
2021/11/23 10:27:45;;;;;;;;;;;;;;;;;;5068662;28;19955;-50
2021/11/23 10:30:11;;;;;;;;;;;;;;;;;;5068478;28;19909;-50
2021/11/23 10:32:36;;;;;;;;;;;;;;;;;;5068321;28;20295;-52
2021/11/23 10:35:02;;;;;;;;;;;;;;;;;;5068722;28;19909;-50
2021/11/23 10:37:28;;;;;;;;;;;;;;;;;;5068420;28;19912;-50
2021/11/23 10:39:54;;;;;;;;;;;;;;;;;;5068417;28;19908;-52
2021/11/23 10:42:20;;;;;;;;;;;;;;;;;;5068993;28;19958;-52
2021/11/23 10:44:46;;;;;;;;;;;;;;;;;;5067998;28;20293;-49
2021/11/23 10:47:12;;;;;;;;;;;;;;;;;;5067776;28;19919;-51
2021/11/23 10:49:46;;;;;;;;;;;;;;;;;;5068409;28;20435;-52
2021/11/23 10:52:12;;;;;;;;;;;;;;;;;;5067013;28;19991;-50
2021/11/23 10:54:38;;;;;;;;;;;;;;;;;;5068815;28;20011;-51
2021/11/23 10:57:04;;;;;;;;;;;;;;;;;;5066695;28;20402;-49
2021/11/23 10:59:30;;;;;;;;;;;;;;;;;;5067648;28;20493;-50
2021/11/23 11:01:57;;;;;;;;;;;;;;;;;;5067841;28;19915;-48
2021/11/23 11:04:23;;;;;;;;;;;;;;;;;;5067891;28;19915;-48
2021/11/23 11:06:49;;;;;;;;;;;;;;;;;;5068500;28;19913;-49
2021/11/23 11:09:15;;;;;;;;;;;;;;;;;;5068203;28;19908;-49
2021/11/23 11:11:41;;;;;;;;;;;;;;;;;;5067909;28;20198;-49
2021/11/23 11:14:07;;;;;;;;;;;;;;;;;;5055423;28;19916;-49
2021/11/23 11:16:33;;;;;;;;;;;;;;;;;;5066487;28;19913;-52
2021/11/23 11:18:58;;;;;;;;;;;;;;;;;;5058273;28;19912;-48
2021/11/23 11:21:25;;;;;;;;;;;;;;;;;;5051727;28;19920;-48
2021/11/23 11:23:56;;;;;;;;;;;;;;;;;;5063565;28;19999;-52
2021/11/23 11:26:25;;;;;;;;;;;;;;;;;;5053513;28;20418;-49
2021/11/23 11:28:51;;;;;;;;;;;;;;;;;;5060425;28;19913;-52
2021/11/23 11:31:17;;;;;;;;;;;;;;;;;;5047406;28;19924;-48
2021/11/23 11:33:42;;;;;;;;;;;;;;;;;;5050580;28;20406;-51
2021/11/23 11:36:09;;;;;;;;;;;;;;;;;;5054113;28;19916;-49
2021/11/23 11:38:38;;;;;;;;;;;;;;;;;;5065090;28;19909;-53
2021/11/23 11:41:04;;;;;;;;;;;;;;;;;;5061457;28;20411;-52
2021/11/23 11:43:31;;;;;;;;;;;;;;;;;;5045761;28;20300;-53
2021/11/23 11:45:57;;;;;;;;;;;;;;;;;;5047682;28;20259;-50
2021/11/23 11:48:23;;;;;;;;;;;;;;;;;;5047689;28;19967;-49
2021/11/23 11:50:49;;;;;;;;;;;;;;;;;;5058895;28;19917;-48
2021/11/23 11:53:16;;;;;;;;;;;;;;;;;;5050594;28;20414;-50
2021/11/23 11:55:43;;;;;;;;;;;;;;;;;;5059801;28;19938;-53
2021/11/23 11:58:09;;;;;;;;;;;;;;;;;;5048707;28;19917;-51
2021/11/23 12:00:36;;;;;;;;;;;;;;;;;;5049969;28;20445;-51
2021/11/23 12:03:02;;;;;;;;;;;;;;;;;;5048088;28;20360;-50
2021/11/23 12:05:28;;;;;;;;;;;;;;;;;;5051484;28;19920;-52
2021/11/23 12:07:54;;;;;;;;;;;;;;;;;;5064073;28;19919;-48
2021/11/23 12:10:20;;;;;;;;;;;;;;;;;;5060090;28;19909;-51
2021/11/23 12:12:46;;;;;;;;;;;;;;;;;;5056139;28;20167;-46
2021/11/23 12:15:12;;;;;;;;;;;;;;;;;;5060167;28;19924;-46
2021/11/23 12:17:40;;;;;;;;;;;;;;;;;;5061723;28;19977;-50
2021/11/23 12:20:11;;;;;;;;;;;;;;;;;;5052318;28;19951;-50
2021/11/23 12:22:36;;;;;;;;;;;;;;;;;;5071267;28;19967;-50
2021/11/23 12:25:02;;;;;;;;;;;;;;;;;;5070549;28;20418;-50
2021/11/23 12:27:28;;;;;;;;;;;;;;;;;;5069083;28;19908;-49
2021/11/23 12:29:55;;;;;;;;;;;;;;;;;;5065049;28;19912;-47
2021/11/23 12:32:21;;;;;;;;;;;;;;;;;;5070263;28;19916;-50
2021/11/23 12:34:47;;;;;;;;;;;;;;;;;;5071709;28;19912;-50
2021/11/23 12:37:12;;;;;;;;;;;;;;;;;;5068731;28;19958;-51
2021/11/23 12:39:39;;;;;;;;;;;;;;;;;;5068136;28;19982;-47
2021/11/23 12:42:05;;;;;;;;;;;;;;;;;;5070071;28;19916;-53
2021/11/23 12:44:33;;;;;;;;;;;;;;;;;;5069228;28;20284;-47
2021/11/23 12:47:00;;;;;;;;;;;;;;;;;;5056144;28;19917;-47
2021/11/23 12:49:26;;;;;;;;;;;;;;;;;;5046592;28;20411;-48
2021/11/23 12:51:52;;;;;;;;;;;;;;;;;;5065901;28;19921;-49
2021/11/23 12:54:18;;;;;;;;;;;;;;;;;;5051809;28;19921;-47
2021/11/23 12:56:44;;;;;;;;;;;;;;;;;;5060602;28;20320;-49
2021/11/23 12:59:10;;;;;;;;;;;;;;;;;;5058237;28;19932;-47
2021/11/23 13:01:36;;;;;;;;;;;;;;;;;;5072825;28;19913;-49
2021/11/23 13:04:03;;;;;;;;;;;;;;;;;;5064163;28;19919;-49
2021/11/23 13:06:29;;;;;;;;;;;;;;;;;;5055957;28;20467;-47
2021/11/23 13:08:55;;;;;;;;;;;;;;;;;;5049641;28;20004;-50
2021/11/23 13:11:21;;;;;;;;;;;;;;;;;;5052715;28;19928;-48
2021/11/23 13:13:46;;;;;;;;;;;;;;;;;;5055349;28;19983;-46
2021/11/23 13:16:12;;;;;;;;;;;;;;;;;;5053024;28;19923;-48
2021/11/23 13:18:38;;;;;;;;;;;;;;;;;;5051597;28;19913;-50
2021/11/23 13:21:06;;;;;;;;;;;;;;;;;;5057567;28;19913;-47
2021/11/23 13:23:33;;;;;;;;;;;;;;;;;;5067762;28;20497;-48
2021/11/23 13:25:59;;;;;;;;;;;;;;;;;;5062178;28;19924;-46
2021/11/23 13:28:25;;;;;;;;;;;;;;;;;;5056686;28;19913;-48
2021/11/23 13:30:52;;;;;;;;;;;;;;;;;;5059103;28;20439;-47
2021/11/23 13:33:18;;;;;;;;;;;;;;;;;;5057385;28;20434;-47
2021/11/23 13:35:44;;;;;;;;;;;;;;;;;;5056073;28;19913;-48
2021/11/23 13:38:10;;;;;;;;;;;;;;;;;;5047454;28;20334;-47
2021/11/23 13:40:36;;;;;;;;;;;;;;;;;;5056384;28;19963;-49
2021/11/23 13:43:03;;;;;;;;;;;;;;;;;;5057135;28;19920;-47
2021/11/23 13:45:30;;;;;;;;;;;;;;;;;;5052134;28;19931;-47
2021/11/23 13:47:56;;;;;;;;;;;;;;;;;;5049551;28;20235;-46
2021/11/23 13:50:22;;;;;;;;;;;;;;;;;;5056837;28;19916;-48
2021/11/23 13:52:53;;;;;;;;;;;;;;;;;;5065233;28;19912;-47
2021/11/23 13:55:19;;;;;;;;;;;;;;;;;;5065955;28;19908;-49
2021/11/23 13:57:45;;;;;;;;;;;;;;;;;;5064497;28;19913;-49
2021/11/23 14:00:11;;;;;;;;;;;;;;;;;;5065426;28;19912;-49
2021/11/23 14:02:37;;;;;;;;;;;;;;;;;;5046885;28;19916;-47
2021/11/23 14:05:02;;;;;;;;;;;;;;;;;;5066867;28;19970;-47
2021/11/23 14:07:29;;;;;;;;;;;;;;;;;;5047536;28;19917;-45
2021/11/23 14:09:56;;;;;;;;;;;;;;;;;;5054952;28;19913;-47
2021/11/23 14:12:22;;;;;;;;;;;;;;;;;;5063998;28;19963;-47
2021/11/23 14:14:48;;;;;;;;;;;;;;;;;;5046360;28;19912;-46
2021/11/23 14:17:14;;;;;;;;;;;;;;;;;;5062737;28;20404;-47
2021/11/23 14:19:40;;;;;;;;;;;;;;;;;;5057840;28;19968;-45
2021/11/23 14:22:06;;;;;;;;;;;;;;;;;;5061830;28;19908;-46
2021/11/23 14:24:33;;;;;;;;;;;;;;;;;;5053926;28;19913;-45
2021/11/23 14:26:59;;;;;;;;;;;;;;;;;;5060473;28;20438;-47
2021/11/23 14:29:27;;;;;;;;;;;;;;;;;;5062208;28;19954;-47
2021/11/23 14:31:54;;;;;;;;;;;;;;;;;;5066247;28;19913;-46
2021/11/23 14:34:22;;;;;;;;;;;;;;;;;;5057748;28;19920;-48
2021/11/23 14:36:48;;;;;;;;;;;;;;;;;;5059585;28;19919;-47
2021/11/23 14:39:14;;;;;;;;;;;;;;;;;;5057086;28;19913;-48
2021/11/23 14:41:40;;;;;;;;;;;;;;;;;;5049251;28;20474;-49
2021/11/23 14:44:06;;;;;;;;;;;;;;;;;;5054512;28;19912;-45
2021/11/23 14:46:32;;;;;;;;;;;;;;;;;;5061694;28;20406;-47
2021/11/23 14:48:57;;;;;;;;;;;;;;;;;;5047194;28;20415;-45
2021/11/23 14:51:23;;;;;;;;;;;;;;;;;;5046918;28;20388;-44
2021/11/23 14:53:49;;;;;;;;;;;;;;;;;;5052651;28;20345;-46
2021/11/23 14:56:15;;;;;;;;;;;;;;;;;;5061980;28;20303;-44
2021/11/23 14:58:42;;;;;;;;;;;;;;;;;;5065538;28;19916;-46
2021/11/23 15:01:08;;;;;;;;;;;;;;;;;;5063396;28;19928;-46
2021/11/23 15:03:34;;;;;;;;;;;;;;;;;;5055732;28;19920;-47
2021/11/23 15:06:00;;;;;;;;;;;;;;;;;;5065114;28;19981;-49
2021/11/23 15:08:27;;;;;;;;;;;;;;;;;;5065817;28;20367;-46
2021/11/23 15:10:53;;;;;;;;;;;;;;;;;;5064546;28;19920;-45
2021/11/23 15:13:18;;;;;;;;;;;;;;;;;;5063826;28;19970;-50
2021/11/23 15:15:44;;;;;;;;;;;;;;;;;;5064673;28;19913;-48
2021/11/23 15:18:14;;;;;;;;;;;;;;;;;;5043137;28;20342;-47
2021/11/23 15:20:40;;;;;;;;;;;;;;;;;;5051600;28;19908;-49
2021/11/23 15:23:07;;;;;;;;;;;;;;;;;;5052832;28;19966;-48
2021/11/23 15:25:33;;;;;;;;;;;;;;;;;;5063765;28;19919;-49
2021/11/23 15:28:03;;;;;;;;;;;;;;;;;;5059894;28;19920;-49
2021/11/23 15:30:28;;;;;;;;;;;;;;;;;;5054676;28;19913;-46
2021/11/23 15:32:54;;;;;;;;;;;;;;;;;;5046707;28;20463;-45
2021/11/23 15:35:20;;;;;;;;;;;;;;;;;;5044952;28;19923;-46
2021/11/23 15:37:46;;;;;;;;;;;;;;;;;;5045210;28;19912;-45
2021/11/23 15:40:15;;;;;;;;;;;;;;;;;;5063375;28;19913;-49
2021/11/23 15:42:40;;;;;;;;;;;;;;;;;;5047655;28;20008;-49
2021/11/23 15:45:06;;;;;;;;;;;;;;;;;;5044683;28;20365;-49
2021/11/23 15:47:32;;;;;;;;;;;;;;;;;;5061963;28;19961;-45
2021/11/23 15:49:58;;;;;;;;;;;;;;;;;;5062695;28;20311;-46
2021/11/23 15:52:28;;;;;;;;;;;;;;;;;;5043298;28;20442;-48
2021/11/23 15:54:54;;;;;;;;;;;;;;;;;;5045599;28;19912;-44
2021/11/23 15:57:23;;;;;;;;;;;;;;;;;;5044789;28;19912;-45
2021/11/23 15:59:49;;;;;;;;;;;;;;;;;;5052377;28;19920;-45
2021/11/23 16:02:15;;;;;;;;;;;;;;;;;;5062189;28;19947;-49
2021/11/23 16:04:41;;;;;;;;;;;;;;;;;;5064100;28;19947;-45
2021/11/23 16:07:07;;;;;;;;;;;;;;;;;;5057664;28;19924;-47
2021/11/23 16:09:33;;;;;;;;;;;;;;;;;;5059947;28;19920;-45
2021/11/23 16:11:59;;;;;;;;;;;;;;;;;;5062267;28;20307;-45
2021/11/23 16:14:25;;;;;;;;;;;;;;;;;;5063619;28;19920;-47
2021/11/23 16:16:51;;;;;;;;;;;;;;;;;;5047813;28;19913;-45
2021/11/23 16:19:17;;;;;;;;;;;;;;;;;;5043909;28;19919;-46
2021/11/23 16:21:43;;;;;;;;;;;;;;;;;;5044218;28;20007;-46
2021/11/23 16:24:08;;;;;;;;;;;;;;;;;;5046263;28;19916;-46
2021/11/23 16:26:35;;;;;;;;;;;;;;;;;;5054765;28;19920;-48
2021/11/23 16:29:09;;;;;;;;;;;;;;;;;;5055807;28;20499;-49
2021/11/23 16:31:35;;;;;;;;;;;;;;;;;;5062627;28;19908;-48
2021/11/23 16:34:01;;;;;;;;;;;;;;;;;;5044736;28;19924;-48
2021/11/23 16:36:27;;;;;;;;;;;;;;;;;;5043425;28;19919;-46
2021/11/23 16:38:54;;;;;;;;;;;;;;;;;;5044436;28;20387;-48